sensor_id;sensor_type;location;lat;lon;timestamp;pressure;altitude;pressure_sealevel;temperature;humidity
28588;BME280;15787;49.662;10.162;2023-02-12T00:01:31;101147.63;;;4.78;100.00
28588;BME280;15787;49.662;10.162;2023-02-12T00:04:05;101150.88;;;4.80;100.00
28588;BME280;15787;49.662;10.162;2023-02-12T00:06:38;101152.97;;;4.83;100.00
28588;BME280;15787;49.662;10.162;2023-02-12T00:09:11;101147.59;;;4.45;100.00
28588;BME280;15787;49.662;10.162;2023-02-12T00:11:43;101146.25;;;4.84;100.00
28588;BME280;15787;49.662;10.162;2023-02-12T00:14:16;101143.66;;;4.99;100.00
28588;BME280;15787;49.662;10.162;2023-02-12T00:16:50;101146.31;;;5.08;100.00
28588;BME280;15787;49.662;10.162;2023-02-12T00:19:23;101145.38;;;5.04;100.00
28588;BME280;15787;49.662;10.162;2023-02-12T00:21:56;101147.84;;;5.18;100.00
28588;BME280;15787;49.662;10.162;2023-02-12T00:24:29;101144.69;;;5.07;100.00
28588;BME280;15787;49.662;10.162;2023-02-12T00:27:02;101138.56;;;5.01;100.00
28588;BME280;15787;49.662;10.162;2023-02-12T00:29:36;101139.81;;;4.92;100.00
28588;BME280;15787;49.662;10.162;2023-02-12T00:32:10;101133.91;;;4.81;100.00
28588;BME280;15787;49.662;10.162;2023-02-12T00:34:45;101132.59;;;4.34;100.00
28588;BME280;15787;49.662;10.162;2023-02-12T00:37:19;101146.06;;;4.35;100.00
28588;BME280;15787;49.662;10.162;2023-02-12T00:39:52;101149.66;;;4.69;100.00
28588;BME280;15787;49.662;10.162;2023-02-12T00:42:25;101154.44;;;4.80;100.00
28588;BME280;15787;49.662;10.162;2023-02-12T00:44:59;101152.19;;;5.06;100.00
28588;BME280;15787;49.662;10.162;2023-02-12T00:47:36;101149.03;;;4.96;100.00
28588;BME280;15787;49.662;10.162;2023-02-12T00:50:09;101153.66;;;4.92;100.00
28588;BME280;15787;49.662;10.162;2023-02-12T00:52:44;101162.88;;;4.51;100.00
28588;BME280;15787;49.662;10.162;2023-02-12T00:55:17;101163.78;;;4.02;100.00
28588;BME280;15787;49.662;10.162;2023-02-12T00:57:50;101167.47;;;4.06;100.00
28588;BME280;15787;49.662;10.162;2023-02-12T01:00:23;101160.47;;;4.29;100.00
28588;BME280;15787;49.662;10.162;2023-02-12T01:02:58;101167.00;;;4.24;100.00
28588;BME280;15787;49.662;10.162;2023-02-12T01:05:31;101160.31;;;4.46;100.00
28588;BME280;15787;49.662;10.162;2023-02-12T01:08:04;101162.31;;;4.58;100.00
28588;BME280;15787;49.662;10.162;2023-02-12T01:10:37;101166.16;;;4.65;100.00
28588;BME280;15787;49.662;10.162;2023-02-12T01:13:12;101160.25;;;4.55;100.00
28588;BME280;15787;49.662;10.162;2023-02-12T01:15:45;101155.03;;;4.53;100.00
28588;BME280;15787;49.662;10.162;2023-02-12T01:18:20;101152.97;;;4.29;100.00
28588;BME280;15787;49.662;10.162;2023-02-12T01:20:53;101160.34;;;4.58;100.00
28588;BME280;15787;49.662;10.162;2023-02-12T01:23:27;101149.41;;;4.62;100.00
28588;BME280;15787;49.662;10.162;2023-02-12T01:26:00;101144.88;;;4.24;100.00
28588;BME280;15787;49.662;10.162;2023-02-12T01:28:33;101147.50;;;4.41;100.00
28588;BME280;15787;49.662;10.162;2023-02-12T01:31:10;101146.38;;;4.75;100.00
28588;BME280;15787;49.662;10.162;2023-02-12T01:33:46;101141.72;;;4.34;100.00
28588;BME280;15787;49.662;10.162;2023-02-12T01:36:20;101142.34;;;4.52;100.00
28588;BME280;15787;49.662;10.162;2023-02-12T01:38:54;101132.16;;;4.65;100.00
28588;BME280;15787;49.662;10.162;2023-02-12T01:41:28;101133.53;;;4.38;100.00
28588;BME280;15787;49.662;10.162;2023-02-12T01:44:11;101121.16;;;4.56;100.00
28588;BME280;15787;49.662;10.162;2023-02-12T01:46:47;101130.06;;;4.62;100.00
28588;BME280;15787;49.662;10.162;2023-02-12T01:49:24;101127.16;;;4.58;100.00
28588;BME280;15787;49.662;10.162;2023-02-12T01:52:02;101126.84;;;4.72;100.00
28588;BME280;15787;49.662;10.162;2023-02-12T01:54:36;101127.22;;;4.70;100.00
28588;BME280;15787;49.662;10.162;2023-02-12T01:57:10;101127.09;;;4.79;100.00
28588;BME280;15787;49.662;10.162;2023-02-12T01:59:47;101126.97;;;4.42;100.00
28588;BME280;15787;49.662;10.162;2023-02-12T02:02:23;101120.44;;;4.47;100.00
28588;BME280;15787;49.662;10.162;2023-02-12T02:05:00;101131.28;;;4.52;100.00
28588;BME280;15787;49.662;10.162;2023-02-12T02:07:34;101125.94;;;4.68;100.00
28588;BME280;15787;49.662;10.162;2023-02-12T02:10:08;101133.63;;;4.29;100.00
28588;BME280;15787;49.662;10.162;2023-02-12T02:12:41;101128.03;;;4.50;100.00
28588;BME280;15787;49.662;10.162;2023-02-12T02:15:31;101128.25;;;4.45;100.00
28588;BME280;15787;49.662;10.162;2023-02-12T02:18:11;101139.81;;;4.47;100.00
28588;BME280;15787;49.662;10.162;2023-02-12T02:21:18;101132.19;;;4.23;100.00
28588;BME280;15787;49.662;10.162;2023-02-12T02:27:17;101124.56;;;4.41;100.00
28588;BME280;15787;49.662;10.162;2023-02-12T02:30:16;101121.19;;;4.68;100.00
28588;BME280;15787;49.662;10.162;2023-02-12T02:33:00;101126.19;;;4.42;100.00
28588;BME280;15787;49.662;10.162;2023-02-12T02:35:41;101129.56;;;3.86;100.00
28588;BME280;15787;49.662;10.162;2023-02-12T02:38:23;101127.63;;;3.86;100.00
28588;BME280;15787;49.662;10.162;2023-02-12T02:41:01;101118.63;;;3.89;100.00
28588;BME280;15787;49.662;10.162;2023-02-12T02:43:40;101130.19;;;3.91;100.00
28588;BME280;15787;49.662;10.162;2023-02-12T02:46:20;101127.28;;;4.29;100.00
28588;BME280;15787;49.662;10.162;2023-02-12T02:48:59;101132.19;;;4.44;100.00
28588;BME280;15787;49.662;10.162;2023-02-12T02:51:40;101136.44;;;4.74;100.00
28588;BME280;15787;49.662;10.162;2023-02-12T02:54:16;101137.06;;;4.59;100.00
28588;BME280;15787;49.662;10.162;2023-02-12T02:56:54;101141.78;;;4.59;100.00
28588;BME280;15787;49.662;10.162;2023-02-12T02:59:33;101142.22;;;4.48;100.00
28588;BME280;15787;49.662;10.162;2023-02-12T03:02:12;101138.25;;;4.37;100.00
28588;BME280;15787;49.662;10.162;2023-02-12T03:04:48;101140.78;;;4.63;100.00
28588;BME280;15787;49.662;10.162;2023-02-12T03:07:26;101139.69;;;4.56;100.00
28588;BME280;15787;49.662;10.162;2023-02-12T03:10:04;101135.72;;;4.65;100.00
28588;BME280;15787;49.662;10.162;2023-02-12T03:12:43;101145.03;;;4.61;100.00
28588;BME280;15787;49.662;10.162;2023-02-12T03:15:22;101141.16;;;4.74;100.00
28588;BME280;15787;49.662;10.162;2023-02-12T03:17:57;101148.19;;;4.71;100.00
28588;BME280;15787;49.662;10.162;2023-02-12T03:20:35;101145.84;;;4.61;100.00
28588;BME280;15787;49.662;10.162;2023-02-12T03:23:13;101148.19;;;4.18;100.00
28588;BME280;15787;49.662;10.162;2023-02-12T03:25:51;101147.75;;;4.48;100.00
28588;BME280;15787;49.662;10.162;2023-02-12T03:28:29;101137.94;;;4.72;100.00
28588;BME280;15787;49.662;10.162;2023-02-12T03:31:08;101143.16;;;4.85;100.00
28588;BME280;15787;49.662;10.162;2023-02-12T03:33:51;101143.38;;;4.80;100.00
28588;BME280;15787;49.662;10.162;2023-02-12T03:36:32;101155.63;;;4.59;100.00
28588;BME280;15787;49.662;10.162;2023-02-12T03:39:09;101154.00;;;4.58;100.00
28588;BME280;15787;49.662;10.162;2023-02-12T03:41:49;101152.38;;;4.77;100.00
28588;BME280;15787;49.662;10.162;2023-02-12T03:44:35;101151.53;;;4.77;100.00
28588;BME280;15787;49.662;10.162;2023-02-12T03:47:16;101158.69;;;4.45;100.00
28588;BME280;15787;49.662;10.162;2023-02-12T03:49:58;101158.66;;;4.66;100.00
28588;BME280;15787;49.662;10.162;2023-02-12T03:52:32;101150.75;;;4.88;100.00
28588;BME280;15787;49.662;10.162;2023-02-12T03:55:06;101154.13;;;4.94;100.00
28588;BME280;15787;49.662;10.162;2023-02-12T03:57:41;101158.84;;;4.93;100.00
28588;BME280;15787;49.662;10.162;2023-02-12T04:00:18;101159.78;;;4.85;100.00
28588;BME280;15787;49.662;10.162;2023-02-12T04:02:53;101158.66;;;4.66;100.00
28588;BME280;15787;49.662;10.162;2023-02-12T04:05:27;101160.28;;;4.67;100.00
28588;BME280;15787;49.662;10.162;2023-02-12T04:08:09;101159.47;;;4.66;100.00
28588;BME280;15787;49.662;10.162;2023-02-12T04:10:52;101168.13;;;4.03;100.00
28588;BME280;15787;49.662;10.162;2023-02-12T04:13:35;101167.25;;;4.52;100.00
28588;BME280;15787;49.662;10.162;2023-02-12T04:16:18;101163.88;;;4.46;100.00
28588;BME280;15787;49.662;10.162;2023-02-12T04:18:53;101175.63;;;4.02;100.00
28588;BME280;15787;49.662;10.162;2023-02-12T04:21:39;101170.97;;;4.35;100.00
28588;BME280;15787;49.662;10.162;2023-02-12T04:24:18;101168.00;;;4.40;100.00
28588;BME280;15787;49.662;10.162;2023-02-12T04:26:59;101167.91;;;4.70;100.00
28588;BME280;15787;49.662;10.162;2023-02-12T04:29:40;101173.13;;;4.51;100.00
28588;BME280;15787;49.662;10.162;2023-02-12T04:32:20;101179.91;;;4.74;100.00
28588;BME280;15787;49.662;10.162;2023-02-12T04:34:58;101176.22;;;4.70;100.00
28588;BME280;15787;49.662;10.162;2023-02-12T04:37:37;101177.00;;;4.17;100.00
28588;BME280;15787;49.662;10.162;2023-02-12T04:40:14;101180.44;;;4.34;100.00
28588;BME280;15787;49.662;10.162;2023-02-12T04:42:49;101184.16;;;4.71;100.00
28588;BME280;15787;49.662;10.162;2023-02-12T04:45:25;101178.94;;;4.37;100.00
28588;BME280;15787;49.662;10.162;2023-02-12T04:47:58;101172.44;;;4.33;100.00
28588;BME280;15787;49.662;10.162;2023-02-12T04:50:37;101179.06;;;4.40;100.00
28588;BME280;15787;49.662;10.162;2023-02-12T04:53:12;101177.47;;;4.19;100.00
28588;BME280;15787;49.662;10.162;2023-02-12T04:55:45;101181.03;;;3.99;100.00
28588;BME280;15787;49.662;10.162;2023-02-12T04:58:20;101177.88;;;4.29;100.00
28588;BME280;15787;49.662;10.162;2023-02-12T05:00:52;101171.84;;;4.27;100.00
28588;BME280;15787;49.662;10.162;2023-02-12T05:03:26;101178.25;;;3.99;100.00
28588;BME280;15787;49.662;10.162;2023-02-12T05:06:02;101175.75;;;4.06;100.00
28588;BME280;15787;49.662;10.162;2023-02-12T05:08:36;101169.63;;;4.00;100.00
28588;BME280;15787;49.662;10.162;2023-02-12T05:11:10;101164.78;;;4.18;100.00
28588;BME280;15787;49.662;10.162;2023-02-12T05:13:47;101166.41;;;4.39;100.00
28588;BME280;15787;49.662;10.162;2023-02-12T05:16:20;101170.19;;;4.14;100.00
28588;BME280;15787;49.662;10.162;2023-02-12T05:18:53;101183.75;;;3.78;100.00
28588;BME280;15787;49.662;10.162;2023-02-12T05:21:26;101183.75;;;3.78;100.00
28588;BME280;15787;49.662;10.162;2023-02-12T05:24:01;101183.16;;;3.93;100.00
28588;BME280;15787;49.662;10.162;2023-02-12T05:26:35;101183.88;;;3.81;100.00
28588;BME280;15787;49.662;10.162;2023-02-12T05:29:09;101188.19;;;3.70;100.00
28588;BME280;15787;49.662;10.162;2023-02-12T05:31:43;101176.88;;;3.84;100.00
28588;BME280;15787;49.662;10.162;2023-02-12T05:34:16;101172.34;;;4.29;100.00
28588;BME280;15787;49.662;10.162;2023-02-12T05:36:49;101181.34;;;4.18;100.00
28588;BME280;15787;49.662;10.162;2023-02-12T05:39:24;101186.63;;;4.11;100.00
28588;BME280;15787;49.662;10.162;2023-02-12T05:41:56;101174.28;;;4.29;100.00
28588;BME280;15787;49.662;10.162;2023-02-12T05:44:29;101186.13;;;4.50;100.00
28588;BME280;15787;49.662;10.162;2023-02-12T05:47:02;101176.94;;;4.58;100.00
28588;BME280;15787;49.662;10.162;2023-02-12T05:49:35;101183.31;;;4.59;100.00
28588;BME280;15787;49.662;10.162;2023-02-12T05:52:08;101198.69;;;4.06;100.00
28588;BME280;15787;49.662;10.162;2023-02-12T05:54:43;101199.97;;;4.50;100.00
28588;BME280;15787;49.662;10.162;2023-02-12T05:57:16;101210.72;;;3.81;100.00
28588;BME280;15787;49.662;10.162;2023-02-12T05:59:49;101202.63;;;3.76;100.00
28588;BME280;15787;49.662;10.162;2023-02-12T06:02:22;101199.28;;;3.91;100.00
28588;BME280;15787;49.662;10.162;2023-02-12T06:04:55;101203.09;;;4.48;100.00
28588;BME280;15787;49.662;10.162;2023-02-12T06:07:28;101199.03;;;4.46;100.00
28588;BME280;15787;49.662;10.162;2023-02-12T06:10:06;101208.75;;;4.52;100.00
28588;BME280;15787;49.662;10.162;2023-02-12T06:12:40;101208.06;;;4.55;100.00
28588;BME280;15787;49.662;10.162;2023-02-12T06:15:13;101210.56;;;4.27;100.00
28588;BME280;15787;49.662;10.162;2023-02-12T06:17:46;101206.28;;;3.89;100.00
28588;BME280;15787;49.662;10.162;2023-02-12T06:20:19;101213.56;;;3.93;100.00
28588;BME280;15787;49.662;10.162;2023-02-12T06:22:52;101220.88;;;4.18;100.00
28588;BME280;15787;49.662;10.162;2023-02-12T06:25:27;101219.84;;;4.02;100.00
28588;BME280;15787;49.662;10.162;2023-02-12T06:28:00;101225.88;;;4.25;100.00
28588;BME280;15787;49.662;10.162;2023-02-12T06:30:33;101231.09;;;4.26;100.00
28588;BME280;15787;49.662;10.162;2023-02-12T06:33:06;101228.19;;;4.43;100.00
28588;BME280;15787;49.662;10.162;2023-02-12T06:35:39;101232.09;;;4.22;100.00
28588;BME280;15787;49.662;10.162;2023-02-12T06:38:12;101230.06;;;4.52;100.00
28588;BME280;15787;49.662;10.162;2023-02-12T06:40:46;101237.44;;;3.98;100.00
28588;BME280;15787;49.662;10.162;2023-02-12T06:43:19;101235.69;;;3.93;100.00
28588;BME280;15787;49.662;10.162;2023-02-12T06:45:52;101232.56;;;3.95;100.00
28588;BME280;15787;49.662;10.162;2023-02-12T06:48:27;101237.09;;;4.28;100.00
28588;BME280;15787;49.662;10.162;2023-02-12T06:51:05;101239.91;;;4.20;100.00
28588;BME280;15787;49.662;10.162;2023-02-12T06:53:39;101253.78;;;3.82;100.00
28588;BME280;15787;49.662;10.162;2023-02-12T06:56:13;101248.44;;;3.77;100.00
28588;BME280;15787;49.662;10.162;2023-02-12T06:58:50;101256.09;;;3.71;100.00
28588;BME280;15787;49.662;10.162;2023-02-12T07:01:25;101244.91;;;4.26;100.00
28588;BME280;15787;49.662;10.162;2023-02-12T07:03:59;101245.03;;;4.30;100.00
28588;BME280;15787;49.662;10.162;2023-02-12T07:06:34;101248.63;;;4.30;100.00
28588;BME280;15787;49.662;10.162;2023-02-12T07:09:07;101247.25;;;4.16;100.00
28588;BME280;15787;49.662;10.162;2023-02-12T07:11:41;101253.81;;;4.11;100.00
28588;BME280;15787;49.662;10.162;2023-02-12T07:14:15;101253.13;;;4.14;100.00
28588;BME280;15787;49.662;10.162;2023-02-12T07:16:48;101253.22;;;4.26;100.00
28588;BME280;15787;49.662;10.162;2023-02-12T07:19:21;101255.81;;;4.23;100.00
28588;BME280;15787;49.662;10.162;2023-02-12T07:21:54;101253.59;;;4.16;100.00
28588;BME280;15787;49.662;10.162;2023-02-12T07:24:27;101253.91;;;4.15;100.00
28588;BME280;15787;49.662;10.162;2023-02-12T07:27:01;101257.69;;;4.10;100.00
28588;BME280;15787;49.662;10.162;2023-02-12T07:29:34;101265.16;;;4.10;100.00
28588;BME280;15787;49.662;10.162;2023-02-12T07:32:07;101259.09;;;4.45;100.00
28588;BME280;15787;49.662;10.162;2023-02-12T07:34:40;101256.88;;;4.39;100.00
28588;BME280;15787;49.662;10.162;2023-02-12T07:37:13;101258.97;;;4.42;100.00
28588;BME280;15787;49.662;10.162;2023-02-12T07:39:46;101263.25;;;4.31;100.00
28588;BME280;15787;49.662;10.162;2023-02-12T07:42:20;101261.94;;;4.37;100.00
28588;BME280;15787;49.662;10.162;2023-02-12T07:44:54;101261.59;;;4.38;100.00
28588;BME280;15787;49.662;10.162;2023-02-12T07:47:26;101263.81;;;4.45;100.00
28588;BME280;15787;49.662;10.162;2023-02-12T07:49:59;101272.88;;;4.54;100.00
28588;BME280;15787;49.662;10.162;2023-02-12T07:52:32;101275.38;;;4.68;100.00
28588;BME280;15787;49.662;10.162;2023-02-12T07:55:06;101279.28;;;4.67;100.00
28588;BME280;15787;49.662;10.162;2023-02-12T07:57:41;101276.72;;;4.62;100.00
28588;BME280;15787;49.662;10.162;2023-02-12T08:00:14;101274.88;;;4.86;100.00
28588;BME280;15787;49.662;10.162;2023-02-12T08:02:51;101271.22;;;4.94;100.00
28588;BME280;15787;49.662;10.162;2023-02-12T08:05:24;101281.63;;;4.97;100.00
28588;BME280;15787;49.662;10.162;2023-02-12T08:07:57;101272.44;;;4.85;100.00
28588;BME280;15787;49.662;10.162;2023-02-12T08:10:30;101274.00;;;4.94;100.00
28588;BME280;15787;49.662;10.162;2023-02-12T08:13:04;101281.47;;;5.15;100.00
28588;BME280;15787;49.662;10.162;2023-02-12T08:15:37;101291.31;;;5.03;100.00
28588;BME280;15787;49.662;10.162;2023-02-12T08:18:10;101283.91;;;5.16;100.00
28588;BME280;15787;49.662;10.162;2023-02-12T08:20:42;101285.53;;;5.29;100.00
28588;BME280;15787;49.662;10.162;2023-02-12T08:23:15;101282.53;;;5.34;100.00
28588;BME280;15787;49.662;10.162;2023-02-12T08:25:51;101288.38;;;5.53;100.00
28588;BME280;15787;49.662;10.162;2023-02-12T08:28:26;101295.34;;;5.71;100.00
28588;BME280;15787;49.662;10.162;2023-02-12T08:31:00;101291.03;;;6.07;100.00
28588;BME280;15787;49.662;10.162;2023-02-12T08:33:33;101298.44;;;5.70;100.00
28588;BME280;15787;49.662;10.162;2023-02-12T08:36:08;101295.03;;;5.85;100.00
28588;BME280;15787;49.662;10.162;2023-02-12T08:38:43;101297.56;;;6.38;100.00
28588;BME280;15787;49.662;10.162;2023-02-12T08:41:18;101301.56;;;6.77;100.00
28588;BME280;15787;49.662;10.162;2023-02-12T08:43:55;101299.84;;;6.73;100.00
28588;BME280;15787;49.662;10.162;2023-02-12T08:46:30;101294.00;;;6.50;100.00
28588;BME280;15787;49.662;10.162;2023-02-12T08:49:04;101299.69;;;6.17;100.00
28588;BME280;15787;49.662;10.162;2023-02-12T08:51:41;101292.81;;;6.51;100.00
28588;BME280;15787;49.662;10.162;2023-02-12T08:54:18;101288.13;;;7.19;100.00
28588;BME280;15787;49.662;10.162;2023-02-12T08:56:53;101295.22;;;7.32;99.11
28588;BME280;15787;49.662;10.162;2023-02-12T08:59:28;101301.63;;;6.41;99.97
28588;BME280;15787;49.662;10.162;2023-02-12T09:02:01;101303.38;;;6.46;100.00
28588;BME280;15787;49.662;10.162;2023-02-12T09:04:39;101298.16;;;6.44;100.00
28588;BME280;15787;49.662;10.162;2023-02-12T09:07:12;101305.47;;;6.88;100.00
28588;BME280;15787;49.662;10.162;2023-02-12T09:09:45;101298.91;;;6.69;100.00
28588;BME280;15787;49.662;10.162;2023-02-12T09:12:17;101298.25;;;6.99;100.00
28588;BME280;15787;49.662;10.162;2023-02-12T09:14:52;101306.94;;;6.98;100.00
28588;BME280;15787;49.662;10.162;2023-02-12T09:17:25;101305.72;;;7.39;100.00
28588;BME280;15787;49.662;10.162;2023-02-12T09:19:58;101309.09;;;7.32;100.00
28588;BME280;15787;49.662;10.162;2023-02-12T09:22:32;101315.78;;;6.88;100.00
28588;BME280;15787;49.662;10.162;2023-02-12T09:25:08;101306.44;;;7.36;100.00
28588;BME280;15787;49.662;10.162;2023-02-12T09:27:41;101311.88;;;7.76;99.94
28588;BME280;15787;49.662;10.162;2023-02-12T09:30:16;101308.66;;;7.74;96.61
28588;BME280;15787;49.662;10.162;2023-02-12T09:32:49;101314.31;;;7.34;96.81
28588;BME280;15787;49.662;10.162;2023-02-12T09:35:22;101312.41;;;7.81;96.94
28588;BME280;15787;49.662;10.162;2023-02-12T09:37:55;101315.94;;;7.94;95.95
28588;BME280;15787;49.662;10.162;2023-02-12T09:40:34;101320.38;;;7.51;95.98
28588;BME280;15787;49.662;10.162;2023-02-12T09:43:16;101315.66;;;7.40;97.40
28588;BME280;15787;49.662;10.162;2023-02-12T09:45:54;101313.16;;;7.07;97.97
28588;BME280;15787;49.662;10.162;2023-02-12T09:48:40;101310.97;;;7.56;97.82
28588;BME280;15787;49.662;10.162;2023-02-12T09:51:14;101303.88;;;7.58;97.78
28588;BME280;15787;49.662;10.162;2023-02-12T09:53:48;101309.59;;;7.22;97.57
28588;BME280;15787;49.662;10.162;2023-02-12T09:56:23;101304.53;;;7.24;98.57
28588;BME280;15787;49.662;10.162;2023-02-12T09:59:00;101312.34;;;7.34;98.83
28588;BME280;15787;49.662;10.162;2023-02-12T10:01:35;101307.28;;;7.52;97.67
28588;BME280;15787;49.662;10.162;2023-02-12T10:04:08;101299.00;;;7.40;97.61
28588;BME280;15787;49.662;10.162;2023-02-12T10:06:45;101299.84;;;7.72;98.42
28588;BME280;15787;49.662;10.162;2023-02-12T10:09:32;101294.97;;;7.53;96.72
28588;BME280;15787;49.662;10.162;2023-02-12T10:12:17;101305.56;;;7.47;97.42
28588;BME280;15787;49.662;10.162;2023-02-12T10:15:14;101300.16;;;7.98;97.45
28588;BME280;15787;49.662;10.162;2023-02-12T10:17:58;101300.31;;;8.05;96.53
28588;BME280;15787;49.662;10.162;2023-02-12T10:20:42;101297.38;;;8.13;95.52
28588;BME280;15787;49.662;10.162;2023-02-12T10:23:28;101296.72;;;8.36;94.47
28588;BME280;15787;49.662;10.162;2023-02-12T10:26:11;101299.75;;;8.81;91.87
28588;BME280;15787;49.662;10.162;2023-02-12T10:28:48;101302.47;;;8.43;91.41
28588;BME280;15787;49.662;10.162;2023-02-12T10:31:25;101304.25;;;8.35;92.54
28588;BME280;15787;49.662;10.162;2023-02-12T10:34:08;101302.47;;;8.43;93.11
28588;BME280;15787;49.662;10.162;2023-02-12T10:36:47;101305.13;;;8.89;91.54
28588;BME280;15787;49.662;10.162;2023-02-12T10:39:22;101298.59;;;9.01;90.71
28588;BME280;15787;49.662;10.162;2023-02-12T10:41:59;101299.03;;;9.03;89.66
28588;BME280;15787;49.662;10.162;2023-02-12T10:44:34;101296.63;;;9.02;88.73
28588;BME280;15787;49.662;10.162;2023-02-12T10:47:14;101294.47;;;8.95;90.28
28588;BME280;15787;49.662;10.162;2023-02-12T10:49:55;101294.53;;;9.37;90.13
28588;BME280;15787;49.662;10.162;2023-02-12T10:52:35;101300.50;;;9.16;90.81
28588;BME280;15787;49.662;10.162;2023-02-12T10:55:26;101299.09;;;9.26;89.24
28588;BME280;15787;49.662;10.162;2023-02-12T10:58:02;101296.75;;;9.28;89.79
28588;BME280;15787;49.662;10.162;2023-02-12T11:00:37;101285.00;;;9.38;90.05
28588;BME280;15787;49.662;10.162;2023-02-12T11:03:21;101295.06;;;9.42;89.43
28588;BME280;15787;49.662;10.162;2023-02-12T11:05:55;101290.34;;;9.46;89.93
28588;BME280;15787;49.662;10.162;2023-02-12T11:08:32;101287.59;;;9.27;90.51
28588;BME280;15787;49.662;10.162;2023-02-12T11:11:08;101293.25;;;9.53;90.65
28588;BME280;15787;49.662;10.162;2023-02-12T11:13:45;101279.81;;;9.59;89.55
28588;BME280;15787;49.662;10.162;2023-02-12T11:16:26;101281.19;;;9.27;90.54
28588;BME280;15787;49.662;10.162;2023-02-12T11:19:02;101281.47;;;9.41;91.03
28588;BME280;15787;49.662;10.162;2023-02-12T11:21:37;101266.91;;;9.51;91.23
28588;BME280;15787;49.662;10.162;2023-02-12T11:24:21;101270.28;;;9.60;90.58
28588;BME280;15787;49.662;10.162;2023-02-12T11:27:10;101267.69;;;9.29;91.56
28588;BME280;15787;49.662;10.162;2023-02-12T11:29:44;101266.31;;;9.19;92.03
28588;BME280;15787;49.662;10.162;2023-02-12T11:32:19;101267.97;;;9.43;91.71
28588;BME280;15787;49.662;10.162;2023-02-12T11:35:04;101276.94;;;9.14;91.25
28588;BME280;15787;49.662;10.162;2023-02-12T11:37:41;101265.41;;;9.34;91.59
28588;BME280;15787;49.662;10.162;2023-02-12T11:40:17;101260.13;;;10.17;89.70
28588;BME280;15787;49.662;10.162;2023-02-12T11:42:53;101270.91;;;9.73;89.08
28588;BME280;15787;49.662;10.162;2023-02-12T11:45:31;101268.03;;;9.92;89.21
28588;BME280;15787;49.662;10.162;2023-02-12T11:48:15;101263.97;;;9.86;89.59
28588;BME280;15787;49.662;10.162;2023-02-12T11:50:51;101263.97;;;9.63;90.00
28588;BME280;15787;49.662;10.162;2023-02-12T11:53:29;101255.91;;;9.81;90.90
28588;BME280;15787;49.662;10.162;2023-02-12T11:56:04;101253.28;;;10.14;89.89
28588;BME280;15787;49.662;10.162;2023-02-12T11:58:38;101253.59;;;10.09;89.85
28588;BME280;15787;49.662;10.162;2023-02-12T12:01:14;101251.91;;;9.82;89.70
28588;BME280;15787;49.662;10.162;2023-02-12T12:03:58;101254.16;;;10.18;89.71
28588;BME280;15787;49.662;10.162;2023-02-12T12:06:34;101251.97;;;9.85;89.63
28588;BME280;15787;49.662;10.162;2023-02-12T12:09:14;101236.06;;;9.40;91.19
28588;BME280;15787;49.662;10.162;2023-02-12T12:11:56;101240.25;;;9.53;92.28
28588;BME280;15787;49.662;10.162;2023-02-12T12:14:34;101242.94;;;9.69;91.00
28588;BME280;15787;49.662;10.162;2023-02-12T12:17:40;101246.22;;;9.75;90.17
28588;BME280;15787;49.662;10.162;2023-02-12T12:20:38;101240.28;;;10.25;88.41
28588;BME280;15787;49.662;10.162;2023-02-12T12:23:16;101235.50;;;9.54;90.30
28588;BME280;15787;49.662;10.162;2023-02-12T12:25:54;101233.56;;;9.81;92.83
28588;BME280;15787;49.662;10.162;2023-02-12T12:28:33;101234.22;;;10.46;91.67
28588;BME280;15787;49.662;10.162;2023-02-12T12:31:09;101233.75;;;10.70;89.16
28588;BME280;15787;49.662;10.162;2023-02-12T12:33:46;101238.19;;;10.19;87.21
28588;BME280;15787;49.662;10.162;2023-02-12T12:36:38;101232.53;;;10.67;87.02
28588;BME280;15787;49.662;10.162;2023-02-12T12:39:24;101233.91;;;10.02;87.73
28588;BME280;15787;49.662;10.162;2023-02-12T12:42:14;101232.13;;;10.69;87.74
28588;BME280;15787;49.662;10.162;2023-02-12T12:45:04;101223.34;;;10.70;86.89
28588;BME280;15787;49.662;10.162;2023-02-12T12:47:58;101221.72;;;10.99;87.89
28588;BME280;15787;49.662;10.162;2023-02-12T12:50:49;101222.19;;;11.78;87.18
28588;BME280;15787;49.662;10.162;2023-02-12T12:53:36;101219.88;;;11.51;85.17
28588;BME280;15787;49.662;10.162;2023-02-12T12:56:24;101223.66;;;11.28;81.96
28588;BME280;15787;49.662;10.162;2023-02-12T12:59:23;101224.03;;;11.64;83.33
28588;BME280;15787;49.662;10.162;2023-02-12T13:02:26;101215.81;;;11.81;81.24
28588;BME280;15787;49.662;10.162;2023-02-12T13:05:18;101215.75;;;11.74;82.95
28588;BME280;15787;49.662;10.162;2023-02-12T13:08:02;101223.22;;;12.07;81.96
28588;BME280;15787;49.662;10.162;2023-02-12T13:10:45;101217.22;;;11.65;81.06
28588;BME280;15787;49.662;10.162;2023-02-12T13:13:25;101216.41;;;10.87;82.21
28588;BME280;15787;49.662;10.162;2023-02-12T13:16:08;101220.38;;;10.56;82.09
28588;BME280;15787;49.662;10.162;2023-02-12T13:18:53;101220.91;;;10.36;83.31
28588;BME280;15787;49.662;10.162;2023-02-12T13:21:39;101220.25;;;10.20;84.33
28588;BME280;15787;49.662;10.162;2023-02-12T13:24:24;101215.28;;;10.32;84.01
28588;BME280;15787;49.662;10.162;2023-02-12T13:27:04;101210.41;;;10.03;85.20
28588;BME280;15787;49.662;10.162;2023-02-12T13:29:43;101206.19;;;10.39;84.78
28588;BME280;15787;49.662;10.162;2023-02-12T13:32:22;101213.66;;;10.61;84.12
28588;BME280;15787;49.662;10.162;2023-02-12T13:34:58;101216.31;;;11.13;83.42
28588;BME280;15787;49.662;10.162;2023-02-12T13:37:37;101218.03;;;11.65;80.86